sensor_id;sensor_type;location;lat;lon;timestamp;P1;durP1;ratioP1;P2;durP2;ratioP2
68216;SDS011;55037;52.354;4.992;2023-06-22T00:01:19;27.30;;;15.73;;
68216;SDS011;55037;52.354;4.992;2023-06-22T00:03:49;33.28;;;16.73;;
68216;SDS011;55037;52.354;4.992;2023-06-22T00:06:17;25.85;;;16.13;;
68216;SDS011;55037;52.354;4.992;2023-06-22T00:08:44;26.55;;;13.35;;
68216;SDS011;55037;52.354;4.992;2023-06-22T00:11:11;28.08;;;15.93;;
68216;SDS011;55037;52.354;4.992;2023-06-22T00:13:39;27.10;;;15.63;;
68216;SDS011;55037;52.354;4.992;2023-06-22T00:16:06;31.42;;;16.33;;
68216;SDS011;55037;52.354;4.992;2023-06-22T00:18:34;22.50;;;13.75;;
68216;SDS011;55037;52.354;4.992;2023-06-22T00:21:01;27.50;;;15.50;;
68216;SDS011;55037;52.354;4.992;2023-06-22T00:23:28;27.75;;;15.60;;
68216;SDS011;55037;52.354;4.992;2023-06-22T00:26:00;28.23;;;14.40;;
68216;SDS011;55037;52.354;4.992;2023-06-22T00:28:28;25.17;;;14.70;;
68216;SDS011;55037;52.354;4.992;2023-06-22T00:30:55;27.98;;;16.23;;
68216;SDS011;55037;52.354;4.992;2023-06-22T00:33:25;26.02;;;15.95;;
68216;SDS011;55037;52.354;4.992;2023-06-22T00:35:52;31.88;;;19.10;;
68216;SDS011;55037;52.354;4.992;2023-06-22T00:38:20;33.63;;;17.77;;
68216;SDS011;55037;52.354;4.992;2023-06-22T00:40:47;32.25;;;17.98;;
68216;SDS011;55037;52.354;4.992;2023-06-22T00:43:15;36.28;;;18.80;;
68216;SDS011;55037;52.354;4.992;2023-06-22T00:45:42;37.35;;;20.27;;
68216;SDS011;55037;52.354;4.992;2023-06-22T00:48:09;37.65;;;19.05;;
68216;SDS011;55037;52.354;4.992;2023-06-22T00:50:39;37.67;;;20.50;;
68216;SDS011;55037;52.354;4.992;2023-06-22T00:53:09;39.40;;;19.63;;
68216;SDS011;55037;52.354;4.992;2023-06-22T00:55:40;37.75;;;20.50;;
68216;SDS011;55037;52.354;4.992;2023-06-22T00:58:18;39.60;;;19.85;;
68216;SDS011;55037;52.354;4.992;2023-06-22T01:00:48;40.67;;;21.38;;
68216;SDS011;55037;52.354;4.992;2023-06-22T01:03:16;45.80;;;21.37;;
68216;SDS011;55037;52.354;4.992;2023-06-22T01:05:44;42.95;;;20.67;;
68216;SDS011;55037;52.354;4.992;2023-06-22T01:11:08;35.92;;;18.13;;
68216;SDS011;55037;52.354;4.992;2023-06-22T01:13:45;42.13;;;20.13;;
68216;SDS011;55037;52.354;4.992;2023-06-22T01:16:29;38.70;;;18.40;;
68216;SDS011;55037;52.354;4.992;2023-06-22T01:19:08;36.88;;;20.48;;
68216;SDS011;55037;52.354;4.992;2023-06-22T01:22:05;34.70;;;18.48;;
68216;SDS011;55037;52.354;4.992;2023-06-22T01:30:28;43.80;;;21.67;;
68216;SDS011;55037;52.354;4.992;2023-06-22T01:32:57;38.70;;;20.08;;
68216;SDS011;55037;52.354;4.992;2023-06-22T01:35:28;35.30;;;18.73;;
68216;SDS011;55037;52.354;4.992;2023-06-22T01:37:55;45.72;;;21.00;;
68216;SDS011;55037;52.354;4.992;2023-06-22T01:40:23;38.40;;;20.83;;
68216;SDS011;55037;52.354;4.992;2023-06-22T01:42:51;39.60;;;22.00;;
68216;SDS011;55037;52.354;4.992;2023-06-22T01:45:20;41.20;;;20.83;;
68216;SDS011;55037;52.354;4.992;2023-06-22T01:47:49;35.70;;;18.08;;
68216;SDS011;55037;52.354;4.992;2023-06-22T01:50:16;38.63;;;18.25;;
68216;SDS011;55037;52.354;4.992;2023-06-22T01:52:44;33.60;;;17.10;;
68216;SDS011;55037;52.354;4.992;2023-06-22T01:55:11;32.17;;;16.20;;
68216;SDS011;55037;52.354;4.992;2023-06-22T01:57:39;34.28;;;16.83;;
68216;SDS011;55037;52.354;4.992;2023-06-22T02:00:07;31.95;;;18.70;;
68216;SDS011;55037;52.354;4.992;2023-06-22T02:02:43;34.90;;;18.30;;
68216;SDS011;55037;52.354;4.992;2023-06-22T02:05:20;31.67;;;17.45;;
68216;SDS011;55037;52.354;4.992;2023-06-22T02:07:52;27.53;;;15.90;;
68216;SDS011;55037;52.354;4.992;2023-06-22T02:10:30;27.45;;;15.73;;
68216;SDS011;55037;52.354;4.992;2023-06-22T02:12:59;28.65;;;15.13;;
68216;SDS011;55037;52.354;4.992;2023-06-22T02:15:28;28.15;;;13.48;;
68216;SDS011;55037;52.354;4.992;2023-06-22T02:17:55;25.38;;;13.88;;
68216;SDS011;55037;52.354;4.992;2023-06-22T02:20:23;25.87;;;15.07;;
68216;SDS011;55037;52.354;4.992;2023-06-22T02:22:51;26.98;;;15.55;;
68216;SDS011;55037;52.354;4.992;2023-06-22T02:25:18;26.15;;;15.02;;
68216;SDS011;55037;52.354;4.992;2023-06-22T02:27:46;30.60;;;16.17;;
68216;SDS011;55037;52.354;4.992;2023-06-22T02:30:16;29.45;;;14.88;;
68216;SDS011;55037;52.354;4.992;2023-06-22T02:32:43;27.67;;;15.90;;
68216;SDS011;55037;52.354;4.992;2023-06-22T02:35:15;26.05;;;14.43;;
68216;SDS011;55037;52.354;4.992;2023-06-22T02:37:42;28.75;;;16.98;;
68216;SDS011;55037;52.354;4.992;2023-06-22T02:40:09;27.58;;;14.65;;
68216;SDS011;55037;52.354;4.992;2023-06-22T02:42:37;27.77;;;14.85;;
68216;SDS011;55037;52.354;4.992;2023-06-22T02:45:06;28.77;;;16.53;;
68216;SDS011;55037;52.354;4.992;2023-06-22T02:47:33;29.60;;;16.58;;
68216;SDS011;55037;52.354;4.992;2023-06-22T02:50:01;27.40;;;14.15;;
68216;SDS011;55037;52.354;4.992;2023-06-22T02:52:32;29.33;;;16.98;;
68216;SDS011;55037;52.354;4.992;2023-06-22T02:55:01;31.35;;;15.73;;
68216;SDS011;55037;52.354;4.992;2023-06-22T02:57:29;32.83;;;17.03;;
68216;SDS011;55037;52.354;4.992;2023-06-22T02:59:57;30.80;;;16.95;;
68216;SDS011;55037;52.354;4.992;2023-06-22T03:02:24;31.02;;;17.13;;
68216;SDS011;55037;52.354;4.992;2023-06-22T03:04:53;32.67;;;17.17;;
68216;SDS011;55037;52.354;4.992;2023-06-22T03:07:20;31.15;;;17.48;;
68216;SDS011;55037;52.354;4.992;2023-06-22T03:09:49;32.40;;;17.17;;
68216;SDS011;55037;52.354;4.992;2023-06-22T03:12:17;35.35;;;18.52;;
68216;SDS011;55037;52.354;4.992;2023-06-22T03:14:53;28.05;;;16.52;;
68216;SDS011;55037;52.354;4.992;2023-06-22T03:17:20;35.60;;;19.77;;
68216;SDS011;55037;52.354;4.992;2023-06-22T03:19:48;42.00;;;22.00;;
68216;SDS011;55037;52.354;4.992;2023-06-22T03:22:15;33.37;;;17.00;;
68216;SDS011;55037;52.354;4.992;2023-06-22T03:24:43;33.83;;;17.60;;
68216;SDS011;55037;52.354;4.992;2023-06-22T03:27:11;41.72;;;20.92;;
68216;SDS011;55037;52.354;4.992;2023-06-22T03:29:39;33.13;;;17.52;;
68216;SDS011;55037;52.354;4.992;2023-06-22T03:32:06;43.63;;;22.55;;
68216;SDS011;55037;52.354;4.992;2023-06-22T03:34:34;46.43;;;21.83;;
68216;SDS011;55037;52.354;4.992;2023-06-22T03:37:02;34.13;;;18.13;;
68216;SDS011;55037;52.354;4.992;2023-06-22T03:39:31;44.53;;;22.15;;
68216;SDS011;55037;52.354;4.992;2023-06-22T03:41:58;44.72;;;21.98;;
68216;SDS011;55037;52.354;4.992;2023-06-22T03:44:26;44.72;;;22.40;;
68216;SDS011;55037;52.354;4.992;2023-06-22T03:46:53;39.60;;;19.60;;
68216;SDS011;55037;52.354;4.992;2023-06-22T03:49:21;41.17;;;19.13;;
68216;SDS011;55037;52.354;4.992;2023-06-22T03:51:48;48.33;;;23.67;;
68216;SDS011;55037;52.354;4.992;2023-06-22T03:54:15;41.20;;;21.80;;
68216;SDS011;55037;52.354;4.992;2023-06-22T03:56:43;41.60;;;21.25;;
68216;SDS011;55037;52.354;4.992;2023-06-22T03:59:10;37.37;;;19.10;;
68216;SDS011;55037;52.354;4.992;2023-06-22T04:01:37;49.05;;;23.17;;
68216;SDS011;55037;52.354;4.992;2023-06-22T04:04:05;40.22;;;18.98;;
68216;SDS011;55037;52.354;4.992;2023-06-22T04:06:33;42.42;;;19.98;;
68216;SDS011;55037;52.354;4.992;2023-06-22T04:09:01;36.95;;;17.70;;
68216;SDS011;55037;52.354;4.992;2023-06-22T04:11:32;39.93;;;20.93;;
68216;SDS011;55037;52.354;4.992;2023-06-22T04:13:59;44.35;;;20.65;;
68216;SDS011;55037;52.354;4.992;2023-06-22T04:16:27;43.15;;;21.70;;
68216;SDS011;55037;52.354;4.992;2023-06-22T04:18:54;39.92;;;20.67;;
68216;SDS011;55037;52.354;4.992;2023-06-22T04:21:22;39.20;;;17.77;;
68216;SDS011;55037;52.354;4.992;2023-06-22T04:23:49;39.10;;;18.20;;
68216;SDS011;55037;52.354;4.992;2023-06-22T04:26:17;31.23;;;16.75;;
68216;SDS011;55037;52.354;4.992;2023-06-22T04:28:47;32.33;;;16.38;;
68216;SDS011;55037;52.354;4.992;2023-06-22T04:31:22;26.90;;;16.00;;
68216;SDS011;55037;52.354;4.992;2023-06-22T04:33:54;24.92;;;15.45;;
68216;SDS011;55037;52.354;4.992;2023-06-22T04:36:21;24.33;;;15.33;;
68216;SDS011;55037;52.354;4.992;2023-06-22T04:38:52;24.50;;;14.43;;
68216;SDS011;55037;52.354;4.992;2023-06-22T04:41:19;24.48;;;14.80;;
68216;SDS011;55037;52.354;4.992;2023-06-22T04:43:50;24.63;;;12.65;;
68216;SDS011;55037;52.354;4.992;2023-06-22T04:46:20;20.80;;;12.05;;
68216;SDS011;55037;52.354;4.992;2023-06-22T04:48:48;21.87;;;13.80;;
68216;SDS011;55037;52.354;4.992;2023-06-22T04:51:15;20.88;;;12.80;;
68216;SDS011;55037;52.354;4.992;2023-06-22T04:53:42;22.35;;;13.20;;
68216;SDS011;55037;52.354;4.992;2023-06-22T04:56:09;21.85;;;13.75;;
68216;SDS011;55037;52.354;4.992;2023-06-22T04:58:37;23.42;;;15.13;;
68216;SDS011;55037;52.354;4.992;2023-06-22T05:01:04;23.67;;;13.27;;
68216;SDS011;55037;52.354;4.992;2023-06-22T05:03:32;24.00;;;15.32;;
68216;SDS011;55037;52.354;4.992;2023-06-22T05:05:59;23.23;;;15.15;;
68216;SDS011;55037;52.354;4.992;2023-06-22T05:08:26;21.83;;;14.68;;
68216;SDS011;55037;52.354;4.992;2023-06-22T05:10:55;28.73;;;18.77;;
68216;SDS011;55037;52.354;4.992;2023-06-22T05:13:31;29.20;;;19.53;;
68216;SDS011;55037;52.354;4.992;2023-06-22T05:15:59;32.28;;;19.48;;
68216;SDS011;55037;52.354;4.992;2023-06-22T05:18:30;37.83;;;21.17;;
68216;SDS011;55037;52.354;4.992;2023-06-22T05:20:58;32.67;;;20.33;;
68216;SDS011;55037;52.354;4.992;2023-06-22T05:23:26;32.92;;;21.35;;
68216;SDS011;55037;52.354;4.992;2023-06-22T05:25:53;32.17;;;19.57;;
68216;SDS011;55037;52.354;4.992;2023-06-22T05:28:21;33.70;;;20.67;;
68216;SDS011;55037;52.354;4.992;2023-06-22T05:30:50;34.45;;;20.75;;
68216;SDS011;55037;52.354;4.992;2023-06-22T05:33:17;34.28;;;22.85;;
68216;SDS011;55037;52.354;4.992;2023-06-22T05:35:45;38.88;;;23.88;;
68216;SDS011;55037;52.354;4.992;2023-06-22T05:38:12;37.10;;;21.90;;
68216;SDS011;55037;52.354;4.992;2023-06-22T05:40:39;39.08;;;24.88;;
68216;SDS011;55037;52.354;4.992;2023-06-22T05:43:07;36.92;;;25.13;;
68216;SDS011;55037;52.354;4.992;2023-06-22T05:45:34;34.72;;;23.08;;
68216;SDS011;55037;52.354;4.992;2023-06-22T05:48:01;37.38;;;24.08;;
68216;SDS011;55037;52.354;4.992;2023-06-22T05:50:29;33.83;;;20.97;;
68216;SDS011;55037;52.354;4.992;2023-06-22T05:52:56;35.03;;;19.70;;
68216;SDS011;55037;52.354;4.992;2023-06-22T05:55:24;35.72;;;23.33;;
68216;SDS011;55037;52.354;4.992;2023-06-22T05:57:51;37.15;;;22.83;;
68216;SDS011;55037;52.354;4.992;2023-06-22T06:00:19;41.50;;;23.38;;
68216;SDS011;55037;52.354;4.992;2023-06-22T06:02:46;36.67;;;22.13;;
68216;SDS011;55037;52.354;4.992;2023-06-22T06:05:16;39.47;;;23.17;;
68216;SDS011;55037;52.354;4.992;2023-06-22T06:07:44;34.75;;;22.45;;
68216;SDS011;55037;52.354;4.992;2023-06-22T06:10:13;36.55;;;23.13;;
68216;SDS011;55037;52.354;4.992;2023-06-22T06:12:41;33.22;;;23.10;;
68216;SDS011;55037;52.354;4.992;2023-06-22T06:15:08;34.30;;;22.63;;
68216;SDS011;55037;52.354;4.992;2023-06-22T06:17:50;34.00;;;21.85;;
68216;SDS011;55037;52.354;4.992;2023-06-22T06:20:19;31.40;;;20.98;;
68216;SDS011;55037;52.354;4.992;2023-06-22T06:22:48;33.30;;;21.63;;
68216;SDS011;55037;52.354;4.992;2023-06-22T06:25:16;32.40;;;21.30;;
68216;SDS011;55037;52.354;4.992;2023-06-22T06:27:45;32.67;;;19.37;;
68216;SDS011;55037;52.354;4.992;2023-06-22T06:30:13;29.48;;;20.40;;
68216;SDS011;55037;52.354;4.992;2023-06-22T06:32:42;35.10;;;21.67;;
68216;SDS011;55037;52.354;4.992;2023-06-22T06:35:12;29.00;;;20.25;;
68216;SDS011;55037;52.354;4.992;2023-06-22T06:37:42;28.38;;;17.73;;
68216;SDS011;55037;52.354;4.992;2023-06-22T06:40:12;31.73;;;20.47;;
68216;SDS011;55037;52.354;4.992;2023-06-22T06:42:41;34.03;;;22.17;;
68216;SDS011;55037;52.354;4.992;2023-06-22T06:45:11;29.45;;;18.33;;
68216;SDS011;55037;52.354;4.992;2023-06-22T06:47:40;27.42;;;19.10;;
68216;SDS011;55037;52.354;4.992;2023-06-22T06:50:07;33.72;;;22.45;;
68216;SDS011;55037;52.354;4.992;2023-06-22T06:52:35;32.40;;;18.60;;
68216;SDS011;55037;52.354;4.992;2023-06-22T06:55:05;34.72;;;22.83;;
68216;SDS011;55037;52.354;4.992;2023-06-22T06:57:39;31.10;;;19.95;;
68216;SDS011;55037;52.354;4.992;2023-06-22T07:00:07;28.20;;;21.77;;
68216;SDS011;55037;52.354;4.992;2023-06-22T07:02:39;31.45;;;23.20;;
68216;SDS011;55037;52.354;4.992;2023-06-22T07:05:08;31.23;;;23.17;;
68216;SDS011;55037;52.354;4.992;2023-06-22T07:07:36;34.60;;;22.42;;
68216;SDS011;55037;52.354;4.992;2023-06-22T07:10:05;32.08;;;21.50;;
68216;SDS011;55037;52.354;4.992;2023-06-22T07:12:33;28.52;;;18.52;;
68216;SDS011;55037;52.354;4.992;2023-06-22T07:15:02;34.92;;;24.15;;
68216;SDS011;55037;52.354;4.992;2023-06-22T07:17:31;29.40;;;19.90;;
68216;SDS011;55037;52.354;4.992;2023-06-22T07:19:58;31.17;;;23.25;;
68216;SDS011;55037;52.354;4.992;2023-06-22T07:22:25;30.02;;;20.15;;
68216;SDS011;55037;52.354;4.992;2023-06-22T07:24:53;34.33;;;21.48;;
68216;SDS011;55037;52.354;4.992;2023-06-22T07:27:20;29.38;;;21.13;;
68216;SDS011;55037;52.354;4.992;2023-06-22T07:29:48;26.87;;;20.37;;
68216;SDS011;55037;52.354;4.992;2023-06-22T07:32:15;24.05;;;18.50;;
68216;SDS011;55037;52.354;4.992;2023-06-22T07:34:43;28.73;;;19.55;;
68216;SDS011;55037;52.354;4.992;2023-06-22T07:37:10;24.23;;;17.20;;
68216;SDS011;55037;52.354;4.992;2023-06-22T07:39:37;25.15;;;20.35;;
68216;SDS011;55037;52.354;4.992;2023-06-22T07:42:05;24.57;;;20.00;;
68216;SDS011;55037;52.354;4.992;2023-06-22T07:44:32;23.60;;;16.83;;
68216;SDS011;55037;52.354;4.992;2023-06-22T07:47:00;21.88;;;17.67;;
68216;SDS011;55037;52.354;4.992;2023-06-22T07:49:27;24.13;;;18.88;;
68216;SDS011;55037;52.354;4.992;2023-06-22T07:51:55;24.35;;;19.50;;
68216;SDS011;55037;52.354;4.992;2023-06-22T07:54:23;24.17;;;18.53;;
68216;SDS011;55037;52.354;4.992;2023-06-22T07:56:51;23.83;;;18.45;;
68216;SDS011;55037;52.354;4.992;2023-06-22T07:59:20;24.58;;;18.67;;
68216;SDS011;55037;52.354;4.992;2023-06-22T08:01:47;19.33;;;13.18;;
68216;SDS011;55037;52.354;4.992;2023-06-22T08:04:16;255.07;;;37.67;;
68216;SDS011;55037;52.354;4.992;2023-06-22T08:06:43;88.63;;;21.03;;
68216;SDS011;55037;52.354;4.992;2023-06-22T08:09:11;74.35;;;23.05;;
68216;SDS011;55037;52.354;4.992;2023-06-22T08:11:38;81.13;;;23.50;;
68216;SDS011;55037;52.354;4.992;2023-06-22T08:14:06;40.40;;;19.05;;
68216;SDS011;55037;52.354;4.992;2023-06-22T08:16:33;25.25;;;17.80;;
68216;SDS011;55037;52.354;4.992;2023-06-22T08:19:01;24.13;;;13.27;;
68216;SDS011;55037;52.354;4.992;2023-06-22T08:21:28;22.60;;;17.13;;
68216;SDS011;55037;52.354;4.992;2023-06-22T08:23:55;40.05;;;15.75;;
68216;SDS011;55037;52.354;4.992;2023-06-22T08:26:22;29.48;;;17.00;;
68216;SDS011;55037;52.354;4.992;2023-06-22T08:28:50;27.05;;;16.42;;
68216;SDS011;55037;52.354;4.992;2023-06-22T08:31:17;24.70;;;13.53;;
68216;SDS011;55037;52.354;4.992;2023-06-22T08:33:44;24.48;;;13.07;;
68216;SDS011;55037;52.354;4.992;2023-06-22T08:36:15;27.42;;;17.00;;
68216;SDS011;55037;52.354;4.992;2023-06-22T08:38:43;26.08;;;13.98;;
68216;SDS011;55037;52.354;4.992;2023-06-22T08:41:11;29.92;;;16.10;;
68216;SDS011;55037;52.354;4.992;2023-06-22T08:43:38;33.77;;;13.97;;
68216;SDS011;55037;52.354;4.992;2023-06-22T08:46:06;22.73;;;16.90;;
68216;SDS011;55037;52.354;4.992;2023-06-22T08:48:33;26.33;;;17.65;;
68216;SDS011;55037;52.354;4.992;2023-06-22T08:51:00;23.17;;;15.70;;
68216;SDS011;55037;52.354;4.992;2023-06-22T08:53:28;25.60;;;17.63;;
68216;SDS011;55037;52.354;4.992;2023-06-22T08:55:55;23.00;;;16.37;;
68216;SDS011;55037;52.354;4.992;2023-06-22T08:58:22;20.30;;;15.63;;
68216;SDS011;55037;52.354;4.992;2023-06-22T09:00:51;23.52;;;17.33;;
68216;SDS011;55037;52.354;4.992;2023-06-22T09:03:18;23.27;;;15.30;;
68216;SDS011;55037;52.354;4.992;2023-06-22T09:05:47;31.98;;;18.98;;
68216;SDS011;55037;52.354;4.992;2023-06-22T09:08:15;26.47;;;20.00;;
68216;SDS011;55037;52.354;4.992;2023-06-22T09:10:42;26.05;;;20.00;;
68216;SDS011;55037;52.354;4.992;2023-06-22T09:13:09;27.83;;;20.27;;
68216;SDS011;55037;52.354;4.992;2023-06-22T09:15:36;27.05;;;20.67;;
68216;SDS011;55037;52.354;4.992;2023-06-22T09:18:04;26.27;;;21.67;;
68216;SDS011;55037;52.354;4.992;2023-06-22T09:20:33;28.27;;;21.70;;
68216;SDS011;55037;52.354;4.992;2023-06-22T09:23:00;27.58;;;21.10;;
68216;SDS011;55037;52.354;4.992;2023-06-22T09:25:27;26.73;;;20.65;;
68216;SDS011;55037;52.354;4.992;2023-06-22T09:27:55;24.63;;;20.08;;
68216;SDS011;55037;52.354;4.992;2023-06-22T09:30:23;27.50;;;21.45;;
68216;SDS011;55037;52.354;4.992;2023-06-22T09:32:50;28.77;;;21.03;;
68216;SDS011;55037;52.354;4.992;2023-06-22T09:35:17;25.52;;;20.33;;
68216;SDS011;55037;52.354;4.992;2023-06-22T09:37:45;25.85;;;21.17;;
68216;SDS011;55037;52.354;4.992;2023-06-22T09:40:12;24.38;;;20.02;;
68216;SDS011;55037;52.354;4.992;2023-06-22T09:42:42;25.20;;;20.60;;
68216;SDS011;55037;52.354;4.992;2023-06-22T09:45:10;26.83;;;20.10;;
68216;SDS011;55037;52.354;4.992;2023-06-22T09:47:37;24.75;;;18.98;;
68216;SDS011;55037;52.354;4.992;2023-06-22T09:50:05;23.25;;;19.17;;
68216;SDS011;55037;52.354;4.992;2023-06-22T09:52:33;23.88;;;18.70;;
68216;SDS011;55037;52.354;4.992;2023-06-22T09:55:14;21.73;;;17.75;;
68216;SDS011;55037;52.354;4.992;2023-06-22T09:57:43;24.13;;;18.57;;
68216;SDS011;55037;52.354;4.992;2023-06-22T10:00:10;24.30;;;16.20;;
68216;SDS011;55037;52.354;4.992;2023-06-22T10:02:42;21.73;;;17.77;;
68216;SDS011;55037;52.354;4.992;2023-06-22T10:05:10;20.17;;;17.23;;
68216;SDS011;55037;52.354;4.992;2023-06-22T10:07:38;20.95;;;16.80;;
68216;SDS011;55037;52.354;4.992;2023-06-22T10:10:12;20.23;;;16.87;;
68216;SDS011;55037;52.354;4.992;2023-06-22T10:12:47;21.70;;;16.27;;
68216;SDS011;55037;52.354;4.992;2023-06-22T10:15:21;19.48;;;16.08;;
68216;SDS011;55037;52.354;4.992;2023-06-22T10:17:48;19.17;;;16.25;;
68216;SDS011;55037;52.354;4.992;2023-06-22T10:20:16;18.48;;;15.93;;
68216;SDS011;55037;52.354;4.992;2023-06-22T10:22:45;18.43;;;15.37;;
68216;SDS011;55037;52.354;4.992;2023-06-22T10:25:12;18.52;;;15.45;;
68216;SDS011;55037;52.354;4.992;2023-06-22T10:27:40;18.60;;;15.80;;
68216;SDS011;55037;52.354;4.992;2023-06-22T10:30:08;19.13;;;15.57;;
68216;SDS011;55037;52.354;4.992;2023-06-22T10:32:39;22.92;;;16.27;;
68216;SDS011;55037;52.354;4.992;2023-06-22T10:35:08;20.10;;;15.40;;
68216;SDS011;55037;52.354;4.992;2023-06-22T10:37:37;18.70;;;16.33;;
68216;SDS011;55037;52.354;4.992;2023-06-22T10:40:05;18.92;;;16.83;;
68216;SDS011;55037;52.354;4.992;2023-06-22T10:42:33;17.55;;;14.70;;
68216;SDS011;55037;52.354;4.992;2023-06-22T10:45:00;20.27;;;16.38;;
68216;SDS011;55037;52.354;4.992;2023-06-22T10:47:27;20.27;;;15.43;;
68216;SDS011;55037;52.354;4.992;2023-06-22T10:49:54;18.33;;;16.33;;
68216;SDS011;55037;52.354;4.992;2023-06-22T10:52:22;20.38;;;16.42;;
68216;SDS011;55037;52.354;4.992;2023-06-22T10:54:49;17.52;;;15.63;;
68216;SDS011;55037;52.354;4.992;2023-06-22T10:57:16;18.35;;;15.35;;
68216;SDS011;55037;52.354;4.992;2023-06-22T10:59:44;18.10;;;14.93;;
68216;SDS011;55037;52.354;4.992;2023-06-22T11:02:11;21.70;;;16.77;;
68216;SDS011;55037;52.354;4.992;2023-06-22T11:04:38;20.98;;;16.90;;
68216;SDS011;55037;52.354;4.992;2023-06-22T11:07:06;17.95;;;15.50;;
68216;SDS011;55037;52.354;4.992;2023-06-22T11:09:33;20.83;;;17.17;;
68216;SDS011;55037;52.354;4.992;2023-06-22T11:12:00;20.00;;;15.77;;
68216;SDS011;55037;52.354;4.992;2023-06-22T11:14:28;21.10;;;16.85;;
68216;SDS011;55037;52.354;4.992;2023-06-22T11:16:55;26.33;;;17.58;;
68216;SDS011;55037;52.354;4.992;2023-06-22T11:19:23;21.40;;;17.73;;
68216;SDS011;55037;52.354;4.992;2023-06-22T11:21:52;21.52;;;17.92;;
68216;SDS011;55037;52.354;4.992;2023-06-22T11:24:20;82.33;;;21.23;;
68216;SDS011;55037;52.354;4.992;2023-06-22T11:26:47;41.97;;;18.80;;
68216;SDS011;55037;52.354;4.992;2023-06-22T11:29:15;25.92;;;16.42;;
68216;SDS011;55037;52.354;4.992;2023-06-22T11:32:02;20.30;;;17.38;;
68216;SDS011;55037;52.354;4.992;2023-06-22T11:34:29;20.55;;;17.50;;
68216;SDS011;55037;52.354;4.992;2023-06-22T11:36:57;21.80;;;16.80;;
68216;SDS011;55037;52.354;4.992;2023-06-22T11:39:24;20.20;;;16.27;;
68216;SDS011;55037;52.354;4.992;2023-06-22T11:42:11;18.38;;;15.45;;
68216;SDS011;55037;52.354;4.992;2023-06-22T11:44:38;107.47;;;24.88;;
68216;SDS011;55037;52.354;4.992;2023-06-22T11:47:06;34.88;;;17.02;;
68216;SDS011;55037;52.354;4.992;2023-06-22T11:49:33;26.13;;;15.43;;
68216;SDS011;55037;52.354;4.992;2023-06-22T11:52:00;34.08;;;16.75;;
68216;SDS011;55037;52.354;4.992;2023-06-22T11:54:28;22.17;;;16.17;;
68216;SDS011;55037;52.354;4.992;2023-06-22T11:56:55;18.98;;;15.40;;
68216;SDS011;55037;52.354;4.992;2023-06-22T11:59:22;17.60;;;14.57;;
68216;SDS011;55037;52.354;4.992;2023-06-22T12:01:49;21.47;;;14.03;;
68216;SDS011;55037;52.354;4.992;2023-06-22T12:04:18;20.33;;;15.63;;
68216;SDS011;55037;52.354;4.992;2023-06-22T12:06:45;17.58;;;14.55;;
68216;SDS011;55037;52.354;4.992;2023-06-22T12:09:13;16.30;;;13.60;;
68216;SDS011;55037;52.354;4.992;2023-06-22T12:11:40;18.60;;;15.15;;
68216;SDS011;55037;52.354;4.992;2023-06-22T12:14:08;17.10;;;13.50;;
68216;SDS011;55037;52.354;4.992;2023-06-22T12:16:35;21.58;;;14.02;;
68216;SDS011;55037;52.354;4.992;2023-06-22T12:19:02;17.85;;;14.73;;
68216;SDS011;55037;52.354;4.992;2023-06-22T12:21:30;18.95;;;13.50;;
68216;SDS011;55037;52.354;4.992;2023-06-22T12:23:57;17.10;;;13.98;;
68216;SDS011;55037;52.354;4.992;2023-06-22T12:26:25;15.93;;;13.23;;
68216;SDS011;55037;52.354;4.992;2023-06-22T12:28:52;18.20;;;12.80;;
68216;SDS011;55037;52.354;4.992;2023-06-22T12:31:19;16.27;;;12.90;;
68216;SDS011;55037;52.354;4.992;2023-06-22T12:33:47;20.80;;;13.40;;
68216;SDS011;55037;52.354;4.992;2023-06-22T12:36:14;17.10;;;12.30;;
68216;SDS011;55037;52.354;4.992;2023-06-22T12:38:43;20.37;;;11.63;;
68216;SDS011;55037;52.354;4.992;2023-06-22T12:41:10;14.23;;;11.65;;
68216;SDS011;55037;52.354;4.992;2023-06-22T12:43:37;27.27;;;12.13;;
68216;SDS011;55037;52.354;4.992;2023-06-22T12:46:05;13.95;;;11.73;;
68216;SDS011;55037;52.354;4.992;2023-06-22T12:48:32;15.63;;;12.75;;
68216;SDS011;55037;52.354;4.992;2023-06-22T12:51:00;17.77;;;11.80;;
68216;SDS011;55037;52.354;4.992;2023-06-22T12:53:27;14.48;;;11.27;;
68216;SDS011;55037;52.354;4.992;2023-06-22T12:55:55;15.63;;;11.88;;
68216;SDS011;55037;52.354;4.992;2023-06-22T12:58:22;15.48;;;11.57;;
68216;SDS011;55037;52.354;4.992;2023-06-22T13:00:49;12.43;;;10.95;;
68216;SDS011;55037;52.354;4.992;2023-06-22T13:03:17;12.67;;;10.43;;
68216;SDS011;55037;52.354;4.992;2023-06-22T13:05:44;13.88;;;10.60;;
68216;SDS011;55037;52.354;4.992;2023-06-22T13:08:11;12.93;;;10.68;;
68216;SDS011;55037;52.354;4.992;2023-06-22T13:10:39;11.45;;;9.88;;
68216;SDS011;55037;52.354;4.992;2023-06-22T13:13:06;13.80;;;10.40;;
68216;SDS011;55037;52.354;4.992;2023-06-22T13:15:33;12.97;;;9.40;;
68216;SDS011;55037;52.354;4.992;2023-06-22T13:18:01;13.38;;;9.73;;
68216;SDS011;55037;52.354;4.992;2023-06-22T13:20:28;10.95;;;7.03;;
68216;SDS011;55037;52.354;4.992;2023-06-22T13:22:56;11.07;;;9.32;;
68216;SDS011;55037;52.354;4.992;2023-06-22T13:25:23;12.65;;;9.40;;
68216;SDS011;55037;52.354;4.992;2023-06-22T13:27:53;11.27;;;8.57;;
68216;SDS011;55037;52.354;4.992;2023-06-22T13:30:21;8.88;;;6.72;;
68216;SDS011;55037;52.354;4.992;2023-06-22T13:32:48;11.75;;;8.43;;
68216;SDS011;55037;52.354;4.992;2023-06-22T13:35:15;10.30;;;7.38;;
68216;SDS011;55037;52.354;4.992;2023-06-22T13:37:43;8.35;;;6.10;;
68216;SDS011;55037;52.354;4.992;2023-06-22T13:40:10;10.60;;;7.33;;
68216;SDS011;55037;52.354;4.992;2023-06-22T13:42:38;9.63;;;7.28;;
68216;SDS011;55037;52.354;4.992;2023-06-22T13:45:06;9.63;;;7.65;;
68216;SDS011;55037;52.354;4.992;2023-06-22T13:47:34;9.57;;;6.03;;
68216;SDS011;55037;52.354;4.992;2023-06-22T13:50:01;9.20;;;7.60;;
68216;SDS011;55037;52.354;4.992;2023-06-22T13:52:29;11.93;;;7.23;;
68216;SDS011;55037;52.354;4.992;2023-06-22T13:54:56;10.27;;;7.03;;
68216;SDS011;55037;52.354;4.992;2023-06-22T13:57:23;10.73;;;7.10;;
68216;SDS011;55037;52.354;4.992;2023-06-22T13:59:51;10.10;;;7.65;;
68216;SDS011;55037;52.354;4.992;2023-06-22T14:02:18;10.93;;;7.63;;
68216;SDS011;55037;52.354;4.992;2023-06-22T14:04:45;9.53;;;7.73;;
68216;SDS011;55037;52.354;4.992;2023-06-22T14:07:15;10.77;;;5.40;;
68216;SDS011;55037;52.354;4.992;2023-06-22T14:09:43;7.55;;;6.40;;
68216;SDS011;55037;52.354;4.992;2023-06-22T14:12:10;9.45;;;6.55;;
68216;SDS011;55037;52.354;4.992;2023-06-22T14:14:38;7.50;;;6.25;;
68216;SDS011;55037;52.354;4.992;2023-06-22T14:17:06;8.37;;;6.23;;
68216;SDS011;55037;52.354;4.992;2023-06-22T14:19:33;9.18;;;6.75;;
68216;SDS011;55037;52.354;4.992;2023-06-22T14:22:00;9.27;;;6.97;;
68216;SDS011;55037;52.354;4.992;2023-06-22T14:24:28;9.10;;;6.78;;
68216;SDS011;55037;52.354;4.992;2023-06-22T14:26:57;9.68;;;6.50;;
68216;SDS011;55037;52.354;4.992;2023-06-22T14:29:24;9.30;;;6.70;;
68216;SDS011;55037;52.354;4.992;2023-06-22T14:31:52;11.25;;;6.93;;
68216;SDS011;55037;52.354;4.992;2023-06-22T14:34:20;12.00;;;7.45;;
68216;SDS011;55037;52.354;4.992;2023-06-22T14:36:47;8.65;;;5.70;;
68216;SDS011;55037;52.354;4.992;2023-06-22T14:39:14;10.60;;;6.63;;